Time;durP1;ratioP1;P1;durP2;ratioP2;P2;SDS_P1;SDS_P2;PMS_P1;PMS_P2;Temp;Humidity;BMP_temperature;BMP_pressure;BME280_temperature;BME280_humidity;BME280_pressure;Samples;Min_cycle;Max_cycle;Signal;HPM_P1;HPM_P2
2021/10/29 00:00:36;;;;;;;160.80;98.05;;;153.80;2252.80;;;;;;5095534;28;20040;-83
2021/10/29 00:03:06;;;;;;;172.40;104.70;;;153.80;2252.80;;;;;;5094157;28;20024;-83
2021/10/29 00:05:33;;;;;;;132.23;84.03;;;153.80;2252.80;;;;;;5093893;28;20024;-83
2021/10/29 00:07:58;;;;;;;108.47;66.82;;;153.80;2252.80;;;;;;5094510;28;20020;-83
2021/10/29 00:10:25;;;;;;;100.70;63.30;;;128.80;2252.80;;;;;;5095332;28;20028;-83
2021/10/29 00:12:52;;;;;;;114.28;71.53;;;128.60;2252.80;;;;;;5094334;28;20042;-81
2021/10/29 00:15:18;;;;;;;193.98;114.20;;;128.40;2252.80;;;;;;5093941;28;20464;-80
2021/10/29 00:17:44;;;;;;;220.77;130.60;;;128.30;2252.80;;;;;;5094069;28;20039;-81
2021/10/29 00:20:10;;;;;;;273.50;146.20;;;128.70;2252.80;;;;;;5093806;28;20371;-80
2021/10/29 00:22:37;;;;;;;229.47;122.10;;;153.60;2252.80;;;;;;5093734;28;20024;-81
2021/10/29 00:25:04;;;;;;;311.83;147.43;;;154.20;2252.80;;;;;;5093895;28;20073;-81
2021/10/29 00:27:30;;;;;;;348.10;160.90;;;153.70;2252.80;;;;;;5093487;28;20412;-81
2021/10/29 00:29:56;;;;;;;196.68;108.00;;;153.80;2252.80;;;;;;5093642;28;20119;-81
2021/10/29 00:32:23;;;;;;;167.40;101.13;;;153.80;2252.80;;;;;;5094132;28;20027;-80
2021/10/29 00:34:49;;;;;;;161.23;98.50;;;153.80;2252.80;;;;;;5093712;28;20020;-82
2021/10/29 00:37:15;;;;;;;160.00;99.90;;;153.90;2252.80;;;;;;5093525;28;20062;-82
2021/10/29 00:39:41;;;;;;;142.07;92.22;;;153.90;2252.80;;;;;;5093732;28;20073;-82
2021/10/29 00:42:07;;;;;;;136.55;81.70;;;153.90;2252.80;;;;;;5093263;28;20520;-82
2021/10/29 00:44:33;;;;;;;104.55;65.97;;;153.90;2252.80;;;;;;5093372;28;20036;-81
2021/10/29 00:46:59;;;;;;;110.43;68.43;;;153.80;2252.80;;;;;;5093587;28;20349;-82
2021/10/29 00:49:25;;;;;;;113.30;70.60;;;153.60;2252.80;;;;;;5095172;28;20012;-82
2021/10/29 00:51:51;;;;;;;112.38;69.13;;;153.60;2252.80;;;;;;5094826;28;20024;-83
2021/10/29 00:54:19;;;;;;;82.53;51.83;;;153.60;2252.80;;;;;;5093260;28;20019;-82
2021/10/29 00:56:47;;;;;;;79.45;52.65;;;128.70;2252.80;;;;;;5092317;28;20031;-83
2021/10/29 00:59:14;;;;;;;97.13;60.38;;;128.80;2252.80;;;;;;5094741;28;20031;-83
2021/10/29 01:01:40;;;;;;;128.63;73.43;;;128.70;2252.80;;;;;;5092619;28;20051;-81
2021/10/29 01:04:07;;;;;;;88.88;52.55;;;128.50;2252.80;;;;;;5093607;28;20028;-82
2021/10/29 01:06:33;;;;;;;80.63;52.88;;;128.40;2252.80;;;;;;5093498;28;20020;-82
2021/10/29 01:08:59;;;;;;;64.18;42.33;;;128.40;2252.80;;;;;;5092987;28;20027;-81
2021/10/29 01:11:27;;;;;;;65.43;42.55;;;128.30;2252.80;;;;;;5093858;28;20016;-83
2021/10/29 01:13:53;;;;;;;64.40;41.83;;;128.20;2252.80;;;;;;5093083;28;20020;-83
2021/10/29 01:16:21;;;;;;;87.65;55.30;;;128.20;2252.80;;;;;;5092742;28;20424;-82
2021/10/29 01:18:47;;;;;;;115.70;68.85;;;128.20;2252.80;;;;;;5094257;28;20047;-80
2021/10/29 01:21:14;;;;;;;67.63;43.90;;;128.10;2252.80;;;;;;5093301;28;20020;-81
2021/10/29 01:23:40;;;;;;;65.43;40.35;;;103.20;2227.20;;;;;;5092608;28;20028;-81
2021/10/29 01:26:12;;;;;;;70.50;44.53;;;103.20;2227.20;;;;;;5093098;28;20043;-79
2021/10/29 01:28:39;;;;;;;79.05;49.35;;;103.30;2227.20;;;;;;5092941;28;20075;-83
2021/10/29 01:31:05;;;;;;;66.55;42.63;;;103.10;2227.20;;;;;;5092469;28;20031;-83
2021/10/29 01:33:32;;;;;;;64.88;42.05;;;103.10;2227.20;;;;;;5093714;28;20024;-83
2021/10/29 01:35:58;;;;;;;86.10;50.28;;;103.10;2227.20;;;;;;5092643;28;20363;-83
2021/10/29 01:38:39;;;;;;;82.20;49.78;;;103.00;2227.20;;;;;;5092776;28;20070;-84
2021/10/29 01:41:06;;;;;;;91.93;53.45;;;103.00;2227.20;;;;;;5092875;28;20020;-84
2021/10/29 01:43:38;;;;;;;78.28;47.40;;;102.90;2227.20;;;;;;5092343;28;20448;-83
2021/10/29 01:46:04;;;;;;;75.70;49.28;;;103.00;2227.20;;;;;;5092782;28;20046;-84
2021/10/29 01:48:30;;;;;;;79.90;47.55;;;103.00;2227.20;;;;;;5093885;28;20507;-83
2021/10/29 01:50:56;;;;;;;79.57;49.22;;;103.00;2227.20;;;;;;5092347;28;20110;-83
2021/10/29 01:53:22;;;;;;;90.38;57.13;;;103.10;2227.20;;;;;;5093920;28;20107;-84
2021/10/29 01:55:49;;;;;;;86.07;54.50;;;103.00;2227.20;;;;;;5092666;28;20043;-83
2021/10/29 01:58:16;;;;;;;94.78;56.92;;;103.00;2227.20;;;;;;5093625;28;20561;-84
2021/10/29 02:00:42;;;;;;;87.28;52.63;;;103.00;2227.20;;;;;;5091962;28;20044;-83
2021/10/29 02:03:08;;;;;;;83.60;51.15;;;103.10;2227.20;;;;;;5092439;28;20028;-83
2021/10/29 02:05:33;;;;;;;72.90;46.67;;;128.00;2252.80;;;;;;5092343;28;20031;-83
2021/10/29 02:07:59;;;;;;;97.85;56.75;;;128.10;2252.80;;;;;;5093359;28;20077;-83
2021/10/29 02:10:25;;;;;;;66.15;41.40;;;128.20;2252.80;;;;;;5096745;28;20024;-83
2021/10/29 02:12:51;;;;;;;61.95;38.00;;;103.20;2227.20;;;;;;5096278;28;20024;-83
2021/10/29 02:15:17;;;;;;;55.80;38.33;;;103.10;2227.20;;;;;;5098594;28;20390;-83
2021/10/29 02:17:42;;;;;;;69.40;41.67;;;103.00;2227.20;;;;;;5097509;28;20023;-83
2021/10/29 02:20:09;;;;;;;69.85;42.88;;;103.00;2227.20;;;;;;5096371;28;20150;-84
2021/10/29 02:22:35;;;;;;;74.68;43.70;;;103.30;2227.20;;;;;;5096839;28;20354;-82
2021/10/29 02:25:01;;;;;;;80.25;49.60;;;103.00;2227.20;;;;;;5096328;28;20035;-82
2021/10/29 02:27:26;;;;;;;76.55;48.03;;;103.00;2227.20;;;;;;5096319;28;20389;-82
2021/10/29 02:29:52;;;;;;;113.95;63.05;;;103.10;2227.20;;;;;;5096565;28;20032;-83
2021/10/29 02:32:18;;;;;;;89.97;52.33;;;103.00;2227.20;;;;;;5097216;28;20024;-83
2021/10/29 02:34:44;;;;;;;74.43;45.83;;;103.00;2227.20;;;;;;5095704;28;20028;-84
2021/10/29 02:37:10;;;;;;;84.35;49.60;;;103.20;2227.20;;;;;;5097292;28;20020;-81
2021/10/29 02:39:35;;;;;;;70.45;43.92;;;103.20;2227.20;;;;;;5095659;28;20024;-81
2021/10/29 02:42:04;;;;;;;62.75;41.00;;;103.00;2227.20;;;;;;5095718;28;20359;-81
2021/10/29 02:44:30;;;;;;;61.90;40.42;;;102.80;2227.20;;;;;;5095404;28;20115;-82
2021/10/29 02:46:56;;;;;;;60.17;39.58;;;102.70;2227.20;;;;;;5095415;28;20411;-82
2021/10/29 02:49:22;;;;;;;53.63;34.33;;;102.80;2227.20;;;;;;5095846;28;20027;-82
2021/10/29 02:51:48;;;;;;;53.85;34.47;;;102.80;2227.20;;;;;;5095696;28;20360;-84
2021/10/29 02:54:14;;;;;;;55.42;35.08;;;102.60;2227.20;;;;;;5095306;28;20028;-84
2021/10/29 02:56:39;;;;;;;79.38;47.33;;;102.70;2227.20;;;;;;5095475;28;20401;-85
2021/10/29 02:59:05;;;;;;;72.38;45.28;;;102.50;2227.20;;;;;;5095676;28;20020;-84
2021/10/29 03:01:31;;;;;;;65.22;39.63;;;102.40;2227.20;;;;;;5095452;28;20048;-85
2021/10/29 03:03:57;;;;;;;55.03;34.72;;;102.50;2227.20;;;;;;5095462;28;20345;-84
2021/10/29 03:06:23;;;;;;;53.35;33.08;;;102.50;2227.20;;;;;;5096259;28;20448;-84
2021/10/29 03:08:48;;;;;;;61.78;33.30;;;102.50;2227.20;;;;;;5095086;28;20026;-85
2021/10/29 03:11:14;;;;;;;54.10;35.88;;;102.50;2227.20;;;;;;5095299;28;20027;-84
2021/10/29 03:13:40;;;;;;;59.50;35.53;;;102.50;2227.20;;;;;;5095041;28;20020;-84
2021/10/29 03:16:06;;;;;;;56.55;33.25;;;102.50;2227.20;;;;;;5096210;28;20020;-84
2021/10/29 03:18:32;;;;;;;46.00;30.42;;;102.60;2227.20;;;;;;5095171;28;20082;-84
2021/10/29 03:20:58;;;;;;;51.47;31.88;;;102.50;2227.20;;;;;;5093874;28;20027;-84
2021/10/29 03:23:24;;;;;;;54.38;35.13;;;102.40;2227.20;;;;;;5094930;28;20524;-84
2021/10/29 03:25:50;;;;;;;54.60;32.38;;;77.60;2227.20;;;;;;5096196;28;20024;-84
2021/10/29 03:28:16;;;;;;;51.40;33.72;;;77.70;2227.20;;;;;;5095944;28;20427;-84
2021/10/29 03:30:42;;;;;;;47.15;30.40;;;102.40;2227.20;;;;;;5094902;28;20047;-84
2021/10/29 03:33:09;;;;;;;43.90;29.42;;;77.70;2227.20;;;;;;5094950;28;20028;-84
2021/10/29 03:35:36;;;;;;;45.53;29.88;;;102.50;2227.20;;;;;;5094543;28;20477;-84
2021/10/29 03:40:53;;;;;;;49.90;31.58;;;77.70;2227.20;;;;;;5096099;28;20028;-84
2021/10/29 03:43:29;;;;;;;50.72;33.55;;;77.50;2227.20;;;;;;5095722;28;20082;-84
2021/10/29 03:46:00;;;;;;;48.58;33.13;;;77.40;2227.20;;;;;;5096204;28;20039;-84
2021/10/29 03:48:52;;;;;;;50.20;30.30;;;77.60;2227.20;;;;;;5094687;28;20094;-84
2021/10/29 03:56:20;;;;;;;53.58;32.47;;;77.50;2227.20;;;;;;5095517;28;20031;-84
2021/10/29 03:58:47;;;;;;;53.97;35.58;;;77.50;2227.20;;;;;;5094319;28;20023;-84
2021/10/29 04:01:13;;;;;;;62.20;38.88;;;77.30;2227.20;;;;;;5094195;28;20040;-84
2021/10/29 04:03:39;;;;;;;65.75;43.38;;;77.40;2227.20;;;;;;5094039;28;20024;-84
2021/10/29 04:06:05;;;;;;;76.75;47.70;;;77.30;2227.20;;;;;;5094439;28;20444;-84
2021/10/29 04:08:31;;;;;;;63.22;40.10;;;77.30;2227.20;;;;;;5094068;28;20027;-84
2021/10/29 04:10:57;;;;;;;64.40;38.58;;;77.30;2227.20;;;;;;5093981;28;20021;-84
2021/10/29 04:13:27;;;;;;;58.45;38.08;;;77.10;2227.20;;;;;;5094147;28;20119;-84
2021/10/29 04:15:53;;;;;;;59.97;39.00;;;77.50;2227.20;;;;;;5094028;28;20028;-85
2021/10/29 04:18:18;;;;;;;71.70;43.20;;;77.60;2227.20;;;;;;5095072;28;20062;-83
2021/10/29 04:20:44;;;;;;;74.07;46.70;;;77.70;2227.20;;;;;;5093890;28;20050;-83
2021/10/29 04:23:10;;;;;;;83.28;53.90;;;102.50;2227.20;;;;;;5094020;28;20036;-84
2021/10/29 04:25:36;;;;;;;99.55;60.53;;;77.70;2227.20;;;;;;5094197;28;20070;-85
2021/10/29 04:28:08;;;;;;;113.00;65.38;;;102.40;2227.20;;;;;;5095524;28;20095;-84
2021/10/29 04:30:34;;;;;;;114.97;66.15;;;77.70;2227.20;;;;;;5093780;28;20054;-84
2021/10/29 04:33:07;;;;;;;77.05;47.15;;;77.70;2227.20;;;;;;5095041;28;20024;-84
2021/10/29 04:35:34;;;;;;;69.63;43.78;;;77.70;2227.20;;;;;;5093983;28;20016;-84
2021/10/29 04:38:01;;;;;;;63.67;39.45;;;77.60;2227.20;;;;;;5095123;28;20020;-85
2021/10/29 04:40:27;;;;;;;62.58;41.05;;;77.70;2227.20;;;;;;5093708;28;20111;-84
2021/10/29 04:42:52;;;;;;;62.03;40.60;;;77.50;2227.20;;;;;;5093535;28;20115;-83
2021/10/29 04:45:18;;;;;;;61.75;38.58;;;77.60;2227.20;;;;;;5093299;28;20076;-84
2021/10/29 04:47:44;;;;;;;60.53;39.33;;;77.50;2227.20;;;;;;5093683;28;20024;-84
2021/10/29 04:50:10;;;;;;;73.25;47.00;;;77.40;2227.20;;;;;;5093502;28;20377;-82
2021/10/29 04:52:36;;;;;;;61.92;43.47;;;77.30;2227.20;;;;;;5093040;28;20020;-83
2021/10/29 04:55:03;;;;;;;55.53;38.67;;;77.30;2227.20;;;;;;5093459;28;20042;-83
2021/10/29 04:57:29;;;;;;;63.65;41.67;;;77.40;2227.20;;;;;;5094202;28;20020;-83
2021/10/29 04:59:57;;;;;;;66.50;41.83;;;77.20;2227.20;;;;;;5094297;28;20112;-84
2021/10/29 05:02:23;;;;;;;76.53;47.67;;;77.20;2227.20;;;;;;5093326;28;20020;-82
2021/10/29 05:04:49;;;;;;;85.20;50.55;;;77.20;2227.20;;;;;;5093286;28;20032;-84
2021/10/29 05:07:15;;;;;;;72.43;48.03;;;76.90;2227.20;;;;;;5093009;28;20027;-83
2021/10/29 05:09:40;;;;;;;75.95;46.90;;;77.00;2227.20;;;;;;5093242;28;20020;-83
2021/10/29 05:12:06;;;;;;;79.78;51.35;;;77.10;2227.20;;;;;;5093163;28;20020;-83
2021/10/29 05:14:32;;;;;;;71.32;45.03;;;77.00;2227.20;;;;;;5092774;28;20026;-84
2021/10/29 05:16:58;;;;;;;66.07;42.72;;;77.10;2227.20;;;;;;5093125;28;20111;-84
2021/10/29 05:19:24;;;;;;;78.13;45.25;;;77.20;2227.20;;;;;;5094637;28;20507;-83
2021/10/29 05:21:49;;;;;;;68.95;45.88;;;77.00;2227.20;;;;;;5092841;28;20048;-83
2021/10/29 05:24:16;;;;;;;86.28;51.85;;;77.10;2227.20;;;;;;5092974;28;20061;-83
2021/10/29 05:26:43;;;;;;;75.13;50.63;;;77.20;2227.20;;;;;;5093124;28;20409;-83
2021/10/29 05:29:10;;;;;;;70.60;46.05;;;77.20;2227.20;;;;;;5092646;28;20016;-83
2021/10/29 05:31:36;;;;;;;95.38;55.58;;;77.40;2227.20;;;;;;5092971;28;20016;-85
2021/10/29 05:34:02;;;;;;;84.25;51.90;;;77.20;2227.20;;;;;;5092842;28;20031;-81
2021/10/29 05:36:28;;;;;;;98.55;60.45;;;77.20;2227.20;;;;;;5094038;28;20395;-83
2021/10/29 05:38:54;;;;;;;126.10;78.47;;;77.20;2227.20;;;;;;5094212;28;20032;-82
2021/10/29 05:41:20;;;;;;;96.75;59.75;;;77.10;2227.20;;;;;;5092585;28;20020;-83
2021/10/29 05:43:46;;;;;;;74.65;49.45;;;77.30;2227.20;;;;;;5095079;28;20097;-83
2021/10/29 05:46:12;;;;;;;78.53;51.58;;;77.20;2227.20;;;;;;5097259;28;20016;-84
2021/10/29 05:48:38;;;;;;;93.05;63.20;;;77.20;2227.20;;;;;;5096922;28;20024;-84
2021/10/29 05:51:10;;;;;;;99.47;68.00;;;77.00;2227.20;;;;;;5096956;28;20077;-85
2021/10/29 05:56:06;;;;;;;119.18;82.22;;;77.30;2227.20;;;;;;5097976;28;20024;-85
2021/10/29 05:58:34;;;;;;;125.13;87.70;;;77.40;2227.20;;;;;;5098093;28;20019;-84
2021/10/29 06:01:01;;;;;;;95.47;62.85;;;77.40;2227.20;;;;;;5097508;28;20046;-84
2021/10/29 06:03:26;;;;;;;121.88;82.80;;;52.10;2227.20;;;;;;5096344;28;20459;-83
2021/10/29 06:05:53;;;;;;;132.82;93.15;;;77.20;2227.20;;;;;;5096601;28;20091;-85
2021/10/29 06:08:19;;;;;;;105.38;73.45;;;77.10;2227.20;;;;;;5096601;28;20016;-78
2021/10/29 06:10:45;;;;;;;109.55;73.20;;;77.30;2227.20;;;;;;5096134;28;20359;-80
2021/10/29 06:13:11;;;;;;;99.85;61.30;;;77.30;2227.20;;;;;;5096497;28;20038;-79
2021/10/29 06:15:42;;;;;;;88.88;58.13;;;77.50;2227.20;;;;;;5096222;28;20017;-81
2021/10/29 06:18:08;;;;;;;85.93;51.03;;;77.60;2227.20;;;;;;5096010;28;20051;-76
2021/10/29 06:20:34;;;;;;;76.05;49.25;;;77.70;2227.20;;;;;;5096265;28;20066;-79
2021/10/29 06:23:03;;;;;;;77.25;52.35;;;102.40;2227.20;;;;;;5095839;28;20397;-82
2021/10/29 06:25:31;;;;;;;79.30;51.17;;;102.40;2227.20;;;;;;5097297;28;20426;-81
2021/10/29 06:30:44;;;;;;;77.25;48.80;;;102.40;2227.20;;;;;;5096969;28;20079;-80
2021/10/29 06:33:15;;;;;;;88.60;58.78;;;102.50;2227.20;;;;;;5097141;28;20359;-79
2021/10/29 06:35:42;;;;;;;82.10;51.15;;;102.50;2227.20;;;;;;5095666;28;20032;-77
2021/10/29 06:38:12;;;;;;;82.70;52.30;;;102.50;2227.20;;;;;;5095523;28;20027;-80
2021/10/29 06:40:42;;;;;;;87.50;55.88;;;102.50;2227.20;;;;;;5097022;28;20039;-79
2021/10/29 06:43:17;;;;;;;75.75;47.47;;;102.40;2227.20;;;;;;5095672;28;20020;-78
2021/10/29 06:46:02;;;;;;;79.22;54.08;;;77.70;2227.20;;;;;;5096958;28;20183;-76
2021/10/29 06:59:18;;;;;;;76.20;53.28;;;102.80;2227.20;;;;;;5096366;28;20027;-78
2021/10/29 07:40:15;;;;;;;77.60;49.30;;;128.60;2252.80;;;;;;5095730;28;20031;-76
2021/10/29 07:42:51;;;;;;;72.68;51.10;;;128.80;2252.80;;;;;;5096204;28;20028;-76
2021/10/29 07:45:18;;;;;;;81.45;58.63;;;128.90;2252.80;;;;;;5096011;28;20031;-75
2021/10/29 07:47:46;;;;;;;65.93;47.95;;;128.90;2252.80;;;;;;5094172;28;20020;-80
2021/10/29 07:50:13;;;;;;;66.95;46.58;;;153.70;2252.80;;;;;;5095849;28;20016;-77
2021/10/29 07:52:44;;;;;;;91.32;63.78;;;153.80;2252.80;;;;;;5094429;28;20428;-75
2021/10/29 07:55:12;;;;;;;78.68;53.45;;;153.90;2252.80;;;;;;5094861;28;20024;-76
2021/10/29 07:57:39;;;;;;;63.50;46.80;;;154.00;2252.80;;;;;;5094332;28;20020;-74
2021/10/29 08:00:07;;;;;;;76.32;53.83;;;154.10;2252.80;;;;;;5095094;28;20036;-73
2021/10/29 08:02:33;;;;;;;83.28;57.10;;;154.20;2252.80;;;;;;5093849;28;20443;-75
2021/10/29 08:05:00;;;;;;;75.55;53.65;;;154.30;2252.80;;;;;;5095184;28;20028;-77
2021/10/29 08:07:30;;;;;;;66.90;47.90;;;154.40;2252.80;;;;;;5093409;28;20016;-74
2021/10/29 08:09:56;;;;;;;66.82;47.17;;;154.50;2252.80;;;;;;5093662;28;20114;-74
2021/10/29 08:12:22;;;;;;;63.40;49.25;;;179.20;2252.80;;;;;;5094903;28;20388;-74
2021/10/29 08:14:49;;;;;;;60.28;43.05;;;179.40;2252.80;;;;;;5094959;28;20027;-75
2021/10/29 08:17:16;;;;;;;134.00;91.53;;;179.50;2252.80;;;;;;5093834;28;20467;-75
2021/10/29 08:19:43;;;;;;;171.82;124.57;;;179.60;2252.80;;;;;;5095075;28;20020;-75
2021/10/29 08:22:09;;;;;;;148.75;104.35;;;179.70;2252.80;;;;;;5094388;28;20027;-73
2021/10/29 08:24:37;;;;;;;134.68;86.75;;;179.70;2252.80;;;;;;5093537;28;20395;-74
2021/10/29 08:27:05;;;;;;;129.90;84.00;;;179.90;2252.80;;;;;;5094900;28;20022;-74
2021/10/29 08:29:31;;;;;;;191.23;145.07;;;180.10;2252.80;;;;;;5093254;28;20085;-75
2021/10/29 08:31:58;;;;;;;101.97;66.78;;;204.80;2252.80;;;;;;5094497;28;20402;-76
2021/10/29 08:34:26;;;;;;;65.38;48.22;;;204.90;2252.80;;;;;;5093421;28;20024;-76
2021/10/29 08:36:57;;;;;;;63.10;41.65;;;205.10;2252.80;;;;;;5094184;28;20023;-76
2021/10/29 08:39:28;;;;;;;106.68;69.63;;;205.40;2252.80;;;;;;5092870;28;20123;-75
2021/10/29 08:41:54;;;;;;;106.97;69.50;;;205.40;2252.80;;;;;;5092942;28;20077;-76
2021/10/29 08:44:20;;;;;;;77.13;58.90;;;205.60;2252.80;;;;;;5093921;28;20028;-76
2021/10/29 08:46:46;;;;;;;49.15;37.92;;;230.40;2252.80;;;;;;5093091;28;20027;-76
2021/10/29 08:49:14;;;;;;;49.03;35.67;;;230.50;2252.80;;;;;;5093188;28;20031;-76
2021/10/29 08:51:41;;;;;;;65.75;48.25;;;230.60;2252.80;;;;;;5093776;28;20037;-76
2021/10/29 08:54:07;;;;;;;64.05;45.83;;;230.60;2252.80;;;;;;5093106;28;20023;-76
2021/10/29 08:56:34;;;;;;;41.97;33.80;;;230.80;2252.80;;;;;;5093115;28;20039;-76
2021/10/29 08:59:09;;;;;;;39.10;30.65;;;230.90;2252.80;;;;;;5092699;28;20157;-76
2021/10/29 09:01:48;;;;;;;47.05;36.85;;;230.90;2252.80;;;;;;5093857;28;20127;-76
2021/10/29 09:04:16;;;;;;;47.90;37.28;;;231.00;2252.80;;;;;;5092647;28;20488;-76
2021/10/29 09:06:57;;;;;;;55.58;39.10;;;231.00;2252.80;;;;;;5092931;28;20020;-76
2021/10/29 09:35:24;;;;;;;43.00;34.08;;;281.90;2278.40;;;;;;5094095;28;20032;-73
2021/10/29 09:37:56;;;;;;;42.88;34.05;;;282.00;2278.40;;;;;;5092724;28;20020;-76
2021/10/29 09:40:23;;;;;;;48.22;34.97;;;282.20;2278.40;;;;;;5092642;28;20106;-77
2021/10/29 09:42:51;;;;;;;42.05;31.95;;;282.30;2278.40;;;;;;5092541;28;20058;-77
2021/10/29 09:45:22;;;;;;;47.42;36.65;;;307.20;2304.00;;;;;;5092226;28;20039;-77
2021/10/29 09:48:06;;;;;;;56.58;42.20;;;307.20;2304.00;;;;;;5092575;28;20020;-76
2021/10/29 09:50:36;;;;;;;45.30;34.75;;;307.50;2304.00;;;;;;5093134;28;20020;-77
2021/10/29 09:53:09;;;;;;;43.60;35.20;;;307.80;2304.00;;;;;;5092527;28;20027;-76
2021/10/29 09:55:49;;;;;;;49.53;37.28;;;307.80;2304.00;;;;;;5093120;28;20031;-76
2021/10/29 09:58:16;;;;;;;57.80;43.67;;;307.90;2304.00;;;;;;5092780;28;20024;-77
2021/10/29 10:00:43;;;;;;;43.03;32.28;;;308.00;2304.00;;;;;;5092131;28;20557;-76
2021/10/29 10:03:10;;;;;;;48.17;32.63;;;308.10;2304.00;;;;;;5092644;28;20368;-77
2021/10/29 10:05:38;;;;;;;53.60;40.28;;;308.10;2304.00;;;;;;5092316;28;20430;-76
2021/10/29 10:08:05;;;;;;;53.15;38.15;;;332.80;2329.60;;;;;;5092004;28;20027;-77
2021/10/29 10:10:32;;;;;;;43.67;34.42;;;308.10;2304.00;;;;;;5093304;28;20019;-77
2021/10/29 10:12:59;;;;;;;44.22;33.70;;;332.80;2329.60;;;;;;5090959;28;20020;-76
2021/10/29 10:15:27;;;;;;;43.13;33.92;;;333.00;2329.60;;;;;;5090997;28;20394;-74
2021/10/29 10:17:53;;;;;;;42.38;32.33;;;333.20;2329.60;;;;;;5092183;28;20123;-74
2021/10/29 10:20:20;;;;;;;42.88;32.00;;;333.40;2329.60;;;;;;5092247;28;20356;-77
2021/10/29 10:22:48;;;;;;;44.92;34.00;;;333.50;2329.60;;;;;;5091827;28;20111;-77
2021/10/29 10:25:40;;;;;;;42.38;33.30;;;333.50;2329.60;;;;;;5092028;28;20032;-73
2021/10/29 10:46:50;;;;;;;30.30;25.63;;;358.70;2329.60;;;;;;5097057;28;20024;-76
2021/10/29 10:49:47;;;;;;;33.60;25.27;;;358.80;2329.60;;;;;;5095425;28;20115;-76
2021/10/29 10:52:24;;;;;;;31.10;24.60;;;358.80;2329.60;;;;;;5095388;28;20024;-76
2021/10/29 10:55:07;;;;;;;29.42;23.75;;;359.00;2329.60;;;;;;5095351;28;20448;-76
2021/10/29 10:57:45;;;;;;;;;;;384.00;2329.60;;;;;;5095635;28;20507;-75
2021/10/29 11:00:34;;;;;;;33.15;24.30;;;384.00;2329.60;;;;;;5096172;28;19912;-76
2021/10/29 11:11:05;;;;;;;35.30;27.52;;;384.90;2329.60;;;;;;5096035;28;20020;-75
2021/10/29 11:13:43;;;;;;;31.55;26.17;;;409.70;2355.20;;;;;;5096294;28;20034;-76
2021/10/29 11:16:31;;;;;;;39.05;30.15;;;410.20;2355.20;;;;;;5096249;28;20026;-76
2021/10/29 11:19:15;;;;;;;33.83;25.05;;;410.50;2355.20;;;;;;5095898;28;20015;-76
2021/10/29 11:21:55;;;;;;;32.83;23.05;;;435.40;2355.20;;;;;;5095225;28;20024;-76
2021/10/29 11:24:49;;;;;;;28.30;19.52;;;435.70;2355.20;;;;;;5094567;28;20115;-76
2021/10/29 11:27:18;;;;;;;26.95;21.15;;;436.10;2355.20;;;;;;5092345;28;20024;-76
2021/10/29 11:29:55;;;;;;;30.42;18.92;;;460.90;2329.60;;;;;;5094756;28;20103;-79
2021/10/29 11:32:23;;;;;;;23.23;17.98;;;461.20;2227.20;;;;;;5095459;28;20035;-77
2021/10/29 11:34:53;;;;;;;35.53;27.90;;;461.40;2150.40;;;;;;5095686;28;20146;-78
2021/10/29 11:37:19;;;;;;;30.65;20.98;;;461.50;2124.80;;;;;;5094880;28;20089;-77
2021/10/29 11:39:45;;;;;;;29.55;19.90;;;461.70;2073.60;;;;;;5095777;28;20016;-77
2021/10/29 11:42:11;;;;;;;27.23;20.50;;;486.40;2048.00;;;;;;5093768;28;20020;-77
2021/10/29 11:44:39;;;;;;;31.25;26.05;;;486.50;1996.80;;;;;;5095536;28;20024;-77
2021/10/29 11:47:05;;;;;;;24.45;19.35;;;486.60;1971.20;;;;;;5095453;28;20111;-77
2021/10/29 11:49:32;;;;;;;22.13;17.48;;;486.80;1920.00;;;;;;5094447;28;20020;-77
2021/10/29 11:52:03;;;;;;;24.58;19.63;;;486.90;1894.40;;;;;;5094043;28;20050;-77
2021/10/29 11:54:35;;;;;;;29.65;18.67;;;487.10;1894.40;;;;;;5095340;28;20368;-77
2021/10/29 12:08:22;;;;;;;23.38;13.52;;;512.60;1792.00;;;;;;5087362;28;20479;-78
2021/10/29 12:10:50;;;;;;;19.10;15.63;;;512.60;1766.40;;;;;;5094125;28;20020;-77
2021/10/29 12:13:17;;;;;;;21.70;14.13;;;512.70;1766.40;;;;;;5093581;28;20452;-77
2021/10/29 12:15:43;;;;;;;18.15;14.43;;;512.90;1715.20;;;;;;5093838;28;20024;-78
2021/10/29 12:18:10;;;;;;;19.35;15.95;;;537.60;1740.80;;;;;;5093845;28;20020;-78
2021/10/29 12:20:49;;;;;;;22.27;15.50;;;537.80;1740.80;;;;;;5093461;28;20059;-77
2021/10/29 12:23:25;;;;;;;18.27;13.68;;;537.70;1689.60;;;;;;5094950;28;20024;-77
2021/10/29 12:28:41;;;;;;;15.07;12.25;;;537.80;1689.60;;;;;;5095253;28;20024;-77
2021/10/29 12:31:16;;;;;;;16.60;12.60;;;537.90;1664.00;;;;;;5094935;28;20016;-77
2021/10/29 12:34:03;;;;;;;22.85;18.45;;;538.00;1638.40;;;;;;5093536;28;20020;-77
2021/10/29 12:36:59;;;;;;;34.08;27.95;;;538.00;1638.40;;;;;;5093496;28;20020;-78
2021/10/29 13:01:39;;;;;;;23.85;17.65;;;537.70;1612.80;;;;;;5094464;28;20093;-75
2021/10/29 13:04:20;;;;;;;32.05;23.23;;;537.60;1638.40;;;;;;5092051;28;20388;-76
2021/10/29 13:06:49;;;;;;;27.67;21.58;;;537.60;1612.80;;;;;;5092726;28;20015;-75
2021/10/29 13:09:24;;;;;;;24.02;18.33;;;537.70;1612.80;;;;;;5092676;28;20055;-76
2021/10/29 13:11:50;;;;;;;24.25;18.17;;;537.60;1612.80;;;;;;5094094;28;20103;-76
2021/10/29 13:14:22;;;;;;;20.55;16.85;;;537.70;1612.80;;;;;;5092873;28;20024;-76
2021/10/29 13:16:49;;;;;;;22.45;17.17;;;538.00;1612.80;;;;;;5093238;28;20073;-76
2021/10/29 13:35:29;;;;;;;33.50;24.88;;;537.70;1587.20;;;;;;5093920;28;20031;-78
2021/10/29 13:54:29;;;;;;;51.28;38.08;;;512.50;1587.20;;;;;;5093935;28;20122;-76
2021/10/29 14:29:44;;;;;;;40.45;29.42;;;460.80;1817.60;;;;;;5097249;28;20374;-76
2021/10/29 14:32:18;;;;;;;55.17;37.83;;;436.10;1817.60;;;;;;5096165;28;20024;-76
2021/10/29 14:34:49;;;;;;;57.53;41.65;;;435.90;1843.20;;;;;;5095978;28;20094;-78
2021/10/29 14:37:27;;;;;;;64.35;43.10;;;435.90;1868.80;;;;;;5096209;28;20507;-77
2021/10/29 14:40:06;;;;;;;59.85;40.05;;;435.80;1843.20;;;;;;5095615;28;20336;-76
2021/10/29 14:42:37;;;;;;;57.55;42.20;;;435.60;1920.00;;;;;;5095665;28;20111;-77
2021/10/29 15:17:14;;;;;;;93.93;67.95;;;384.90;2201.60;;;;;;5094260;28;20417;-77
2021/10/29 15:43:48;;;;;;;112.95;64.22;;;359.00;2329.60;;;;;;5093741;28;20113;-76
2021/10/29 15:46:39;;;;;;;88.82;55.40;;;358.90;2329.60;;;;;;5094516;28;20016;-77
2021/10/29 15:52:01;;;;;;;138.13;88.28;;;358.80;2329.60;;;;;;5093603;28;20032;-76
2021/10/29 15:54:27;;;;;;;126.57;86.68;;;358.70;2329.60;;;;;;5094124;28;20054;-76
2021/10/29 15:56:56;;;;;;;126.25;83.03;;;358.60;2329.60;;;;;;5093671;28;20016;-76
2021/10/29 16:02:28;;;;;;;131.93;91.93;;;358.50;2329.60;;;;;;5094980;28;20052;-77
2021/10/29 16:18:21;;;;;;;113.32;70.75;;;333.50;2329.60;;;;;;5094819;28;20069;-75
2021/10/29 16:20:47;;;;;;;159.60;87.40;;;333.40;2329.60;;;;;;5093678;28;20028;-75
2021/10/29 16:23:13;;;;;;;167.85;89.50;;;333.40;2329.60;;;;;;5094990;28;20024;-75
2021/10/29 16:25:55;;;;;;;120.10;69.50;;;333.20;2329.60;;;;;;5093131;28;20444;-76
2021/10/29 16:28:26;;;;;;;97.60;70.00;;;333.20;2329.60;;;;;;5092030;28;20019;-75
2021/10/29 16:30:52;;;;;;;100.45;75.65;;;333.00;2329.60;;;;;;5093144;28;20049;-74
2021/10/29 16:33:29;;;;;;;94.45;69.20;;;333.10;2329.60;;;;;;5093168;28;20016;-75
2021/10/29 16:35:55;;;;;;;142.43;87.65;;;332.90;2329.60;;;;;;5094392;28;20051;-75
2021/10/29 16:38:22;;;;;;;135.25;83.95;;;332.90;2329.60;;;;;;5093319;28;20466;-75
2021/10/29 16:40:48;;;;;;;125.63;71.88;;;332.90;2329.60;;;;;;5094607;28;20077;-75
2021/10/29 16:43:15;;;;;;;129.85;82.88;;;332.90;2329.60;;;;;;5094839;28;20016;-76
2021/10/29 16:45:44;;;;;;;113.50;72.60;;;332.80;2329.60;;;;;;5093482;28;20032;-75
2021/10/29 16:48:11;;;;;;;133.43;85.45;;;308.10;2304.00;;;;;;5094643;28;20055;-75
2021/10/29 16:50:37;;;;;;;125.88;78.80;;;308.10;2304.00;;;;;;5093313;28;20024;-76
2021/10/29 16:53:04;;;;;;;116.50;77.50;;;308.00;2304.00;;;;;;5092807;28;20024;-75
2021/10/29 16:55:29;;;;;;;134.02;89.88;;;308.00;2304.00;;;;;;5092977;28;20110;-76
2021/10/29 16:57:56;;;;;;;137.90;91.60;;;308.00;2304.00;;;;;;5092992;28;20120;-76